This is the latest recevied weather packets stored in our database for station/object KC3ROS. If no packets are shown the sender has not sent any weather packets the latest 10 day(s).
| Time | Temp. | Humidity | Pressure | Rain* | Wind** | Luminosity | Snow |
|---|---|---|---|---|---|---|---|
| 1777920082 | 21.67° C | 49% | 1006.9 hPa | 0 mm | - | 820 W/m² | - |
| 1777919779 | 21.67° C | 48% | 1006.9 hPa | 0 mm | - | 784 W/m² | - |
| 1777919477 | 21.11° C | 50% | 1006.9 hPa | 0 mm | - | 795 W/m² | - |
| 1777919174 | 21.67° C | 51% | 1006.8 hPa | 0 mm | - | 792 W/m² | - |
| 1777918872 | 21.67° C | 49% | 1006.8 hPa | 0 mm | - | 785 W/m² | - |
| 1777918569 | 21.11° C | 51% | 1007 hPa | 0 mm | - | 795 W/m² | - |
| 1777918266 | 20.56° C | 51% | 1007.1 hPa | 0 mm | - | 794 W/m² | - |
| 1777917965 | 20.56° C | 50% | 1007.1 hPa | 0 mm | - | 799 W/m² | - |
| 1777917664 | 20.56° C | 52% | 1007 hPa | 0 mm | - | 831 W/m² | - |
| 1777917361 | 20.56° C | 51% | 1007.3 hPa | 0 mm | - | 738 W/m² | - |
| 1777917057 | 20.56° C | 51% | 1007.2 hPa | 0 mm | - | 810 W/m² | - |
| 1777916755 | 21.11° C | 49% | 1007.2 hPa | 0 mm | - | 816 W/m² | - |
| 1777916452 | 20.56° C | 52% | 1007.1 hPa | 0 mm | - | 126 W/m² | - |
| 1777916148 | 20.56° C | 53% | 1007.2 hPa | 0 mm | - | 99 W/m² | - |
| 1777915846 | 20.56° C | 50% | 1007.3 hPa | 0 mm | - | 99 W/m² | - |
| 1777915542 | 20° C | 52% | 1007.5 hPa | 0 mm | - | 116 W/m² | - |
| 1777915239 | 20° C | 49% | 1007.5 hPa | 0 mm | - | 100 W/m² | - |
| 1777914936 | 19.44° C | 51% | 1007.5 hPa | 0 mm | - | 143 W/m² | - |
| 1777914633 | 20° C | 52% | 1007.5 hPa | 0 mm | - | 154 W/m² | - |
| 1777914328 | 20° C | 53% | 1007.9 hPa | 0 mm | - | 126 W/m² | - |
| 1777914026 | 20° C | 50% | 1007.7 hPa | 0 mm | - | 134 W/m² | - |
| 1777913722 | 19.44° C | 52% | 1008 hPa | 0 mm | - | 141 W/m² | - |
| 1777913419 | 19.44° C | 53% | 1007.9 hPa | 0 mm | - | 189 W/m² | - |
| 1777913115 | 19.44° C | 53% | 1008.1 hPa | 0 mm | - | 108 W/m² | - |
| 1777912812 | 20° C | 51% | 1008.1 hPa | 0 mm | - | 93 W/m² | - |
* Rain latest hour (hover to see other rain measurements)
** Current wind speed in m/s (hover to see current wind gust speed)